Time;durP1;ratioP1;P1;durP2;ratioP2;P2;SDS_P1;SDS_P2;PMS_P1;PMS_P2;Temp;Humidity;BMP_temperature;BMP_pressure;BME280_temperature;BME280_humidity;BME280_pressure;Samples;Min_cycle;Max_cycle;Signal;HPM_P1;HPM_P2
2022/06/18 00:01:38;;;;;;;9.52;6.25;;;;;;;;;;5111613;27;20384;-70
2022/06/18 00:06:05;;;;;;;9.77;6.00;;;;;;;;;;5111996;27;20384;-71
2022/06/18 00:14:37;;;;;;;8.50;5.90;;;;;;;;;;5111496;28;20039;-70
2022/06/18 00:17:23;;;;;;;8.88;5.88;;;;;;;;;;5111476;28;20093;-70
2022/06/18 00:19:50;;;;;;;8.35;5.50;;;;;;;;;;5110615;28;20069;-71
2022/06/18 00:22:17;;;;;;;13.00;5.40;;;;;;;;;;5110323;28;20051;-71
2022/06/18 00:26:15;;;;;;;10.38;6.03;;;;;;;;;;5111055;27;20916;-71
2022/06/18 00:30:06;;;;;;;8.57;5.43;;;;;;;;;;5112029;27;20422;-70
2022/06/18 00:32:32;;;;;;;8.30;5.38;;;;;;;;;;5110896;28;20492;-71
2022/06/18 00:34:58;;;;;;;10.80;5.82;;;;;;;;;;5111180;28;20066;-70
2022/06/18 00:37:25;;;;;;;10.32;5.75;;;;;;;;;;5111228;28;20020;-70
2022/06/18 00:41:47;;;;;;;9.35;6.15;;;;;;;;;;5111324;27;20578;-70
2022/06/18 00:44:28;;;;;;;9.65;6.13;;;;;;;;;;5111322;28;20035;-70
2022/06/18 00:51:00;;;;;;;7.78;5.53;;;;;;;;;;5111281;27;20400;-71
2022/06/18 00:53:29;;;;;;;9.38;5.95;;;;;;;;;;5109938;28;20028;-71
2022/06/18 00:59:49;;;;;;;10.95;5.68;;;;;;;;;;5111459;27;20389;-70
2022/06/18 01:02:20;;;;;;;11.65;6.30;;;;;;;;;;5110078;28;20028;-70
2022/06/18 01:04:46;;;;;;;9.93;5.60;;;;;;;;;;5111202;28;20032;-70
2022/06/18 01:07:30;;;;;;;8.38;5.53;;;;;;;;;;5110703;28;20484;-70
2022/06/18 01:09:57;;;;;;;9.15;5.70;;;;;;;;;;5111189;28;20023;-70
2022/06/18 01:12:24;;;;;;;7.43;5.28;;;;;;;;;;5126796;28;20035;-70
2022/06/18 01:18:20;;;;;;;8.50;5.93;;;;;;;;;;5111798;27;20384;-70
2022/06/18 01:23:07;;;;;;;8.85;5.78;;;;;;;;;;5111380;27;20392;-70
2022/06/18 01:25:33;;;;;;;8.18;5.13;;;;;;;;;;5111285;28;20488;-71
2022/06/18 01:27:59;;;;;;;8.55;5.30;;;;;;;;;;5109465;28;20032;-70
2022/06/18 01:32:16;;;;;;;8.20;4.95;;;;;;;;;;5111483;27;20389;-70
2022/06/18 01:34:42;;;;;;;7.43;5.03;;;;;;;;;;5111415;28;20024;-70
2022/06/18 01:39:10;;;;;;;7.40;4.35;;;;;;;;;;5111764;27;20384;-70
2022/06/18 01:43:29;;;;;;;10.88;5.88;;;;;;;;;;5111020;27;20388;-70
2022/06/18 01:45:58;;;;;;;9.57;5.30;;;;;;;;;;5111813;28;20110;-70
2022/06/18 01:48:35;;;;;;;7.57;4.90;;;;;;;;;;5126955;28;20024;-70
2022/06/18 01:51:07;;;;;;;10.40;5.82;;;;;;;;;;5126565;28;20023;-70
2022/06/18 01:54:28;;;;;;;9.40;5.13;;;;;;;;;;5112111;27;20423;-70
2022/06/18 01:56:57;;;;;;;7.55;4.95;;;;;;;;;;5111232;28;20024;-70
2022/06/18 02:00:36;;;;;;;14.30;5.18;;;;;;;;;;5112001;27;20377;-70
2022/06/18 02:04:54;;;;;;;9.15;4.65;;;;;;;;;;5110984;27;20392;-70
2022/06/18 02:07:20;;;;;;;9.90;4.78;;;;;;;;;;5111498;28;20028;-70
2022/06/18 02:09:52;;;;;;;6.88;4.75;;;;;;;;;;5111443;28;20028;-70
2022/06/18 02:15:33;;;;;;;8.68;5.03;;;;;;;;;;5112154;27;20581;-70
2022/06/18 02:18:02;;;;;;;8.57;5.07;;;;;;;;;;5110831;28;20102;-70
2022/06/18 02:20:29;;;;;;;9.80;6.03;;;;;;;;;;5111249;28;20387;-72
2022/06/18 02:23:22;;;;;;;9.07;4.88;;;;;;;;;;5111573;27;20389;-70
2022/06/18 02:25:48;;;;;;;7.65;4.55;;;;;;;;;;5110882;28;20024;-70
2022/06/18 02:30:57;;;;;;;8.40;5.00;;;;;;;;;;5091728;27;20406;-71
2022/06/18 02:33:30;;;;;;;6.35;4.60;;;;;;;;;;5090537;28;20032;-70
2022/06/18 02:35:57;;;;;;;8.35;5.43;;;;;;;;;;5089671;28;20029;-71
2022/06/18 02:38:23;;;;;;;7.10;4.55;;;;;;;;;;5090452;28;20029;-70
2022/06/18 02:40:50;;;;;;;9.40;5.07;;;;;;;;;;5090757;28;20103;-70
2022/06/18 02:44:34;;;;;;;9.15;5.68;;;;;;;;;;5111546;27;20434;-70
2022/06/18 02:47:05;;;;;;;7.35;5.03;;;;;;;;;;5110960;28;20032;-70
2022/06/18 02:49:32;;;;;;;7.57;4.70;;;;;;;;;;5111286;28;20111;-70
2022/06/18 02:51:58;;;;;;;8.32;5.00;;;;;;;;;;5111188;28;20020;-70
2022/06/18 02:56:27;;;;;;;8.98;5.18;;;;;;;;;;5111670;27;20393;-70
2022/06/18 02:59:56;;;;;;;7.55;4.80;;;;;;;;;;5110939;27;20396;-70
2022/06/18 03:03:43;;;;;;;8.07;4.50;;;;;;;;;;5111676;27;20388;-70
2022/06/18 03:08:14;;;;;;;8.50;4.43;;;;;;;;;;5111031;27;20393;-70
2022/06/18 03:14:48;;;;;;;9.35;4.80;;;;;;;;;;5111064;27;20876;-70
2022/06/18 03:17:14;;;;;;;8.02;4.35;;;;;;;;;;5111576;28;20028;-70
2022/06/18 03:22:27;;;;;;;9.15;4.90;;;;;;;;;;5110908;27;20392;-70
2022/06/18 03:24:53;;;;;;;9.52;4.57;;;;;;;;;;5111157;28;20020;-71
2022/06/18 03:27:19;;;;;;;7.07;4.30;;;;;;;;;;5110811;28;20484;-71
2022/06/18 03:31:15;;;;;;;6.78;4.28;;;;;;;;;;5111453;27;20788;-71
2022/06/18 03:36:04;;;;;;;8.25;4.43;;;;;;;;;;5111049;27;20401;-70
2022/06/18 03:38:30;;;;;;;8.30;4.45;;;;;;;;;;5111454;28;20024;-70
2022/06/18 03:41:21;;;;;;;6.35;4.22;;;;;;;;;;5111708;27;20516;-70
2022/06/18 03:43:47;;;;;;;7.05;4.03;;;;;;;;;;5111621;28;20028;-70
2022/06/18 03:46:15;;;;;;;6.90;3.97;;;;;;;;;;5111483;28;20442;-70
2022/06/18 03:49:19;;;;;;;9.00;4.05;;;;;;;;;;5111396;27;20393;-70
2022/06/18 03:51:46;;;;;;;7.32;4.72;;;;;;;;;;5111326;28;20024;-71
2022/06/18 03:54:12;;;;;;;7.43;4.45;;;;;;;;;;5111268;28;20024;-70
2022/06/18 03:59:07;;;;;;;12.18;4.53;;;;;;;;;;5111695;27;20414;-69
2022/06/18 04:01:36;;;;;;;7.38;4.55;;;;;;;;;;5111211;28;20433;-69
2022/06/18 04:04:02;;;;;;;7.03;4.20;;;;;;;;;;5110742;28;20028;-69
2022/06/18 04:06:29;;;;;;;8.63;5.25;;;;;;;;;;5127018;28;20019;-69
2022/06/18 04:08:55;;;;;;;7.75;4.13;;;;;;;;;;5111098;28;20042;-70
2022/06/18 04:11:21;;;;;;;7.90;4.30;;;;;;;;;;5110704;28;20034;-69
2022/06/18 04:14:30;;;;;;;6.78;4.22;;;;;;;;;;5111618;27;20794;-70
2022/06/18 04:16:56;;;;;;;6.68;3.78;;;;;;;;;;5111045;28;20030;-70
2022/06/18 04:19:22;;;;;;;5.35;3.80;;;;;;;;;;5111191;28;20514;-70
2022/06/18 04:21:49;;;;;;;7.95;4.03;;;;;;;;;;5111226;28;20022;-70
2022/06/18 04:25:47;;;;;;;5.40;3.45;;;;;;;;;;5172843;27;20106;-70
2022/06/18 04:28:14;;;;;;;9.48;4.47;;;;;;;;;;5152458;27;20026;-70
2022/06/18 04:30:40;;;;;;;5.68;3.55;;;;;;;;;;5152042;27;20027;-70
2022/06/18 04:33:07;;;;;;;8.70;4.13;;;;;;;;;;5152340;27;20027;-70
2022/06/18 04:37:44;;;;;;;6.15;3.80;;;;;;;;;;5111468;27;20396;-70
2022/06/18 04:46:11;;;;;;;9.13;4.03;;;;;;;;;;5111175;27;20423;-70
2022/06/18 04:48:37;;;;;;;6.78;3.80;;;;;;;;;;5111347;28;20442;-70
2022/06/18 04:51:47;;;;;;;7.05;3.83;;;;;;;;;;5111678;27;20396;-70
2022/06/18 04:54:13;;;;;;;6.22;3.72;;;;;;;;;;5111415;28;20028;-69
2022/06/18 04:56:39;;;;;;;8.65;3.78;;;;;;;;;;5111361;28;20027;-69
2022/06/18 04:59:06;;;;;;;6.47;3.30;;;;;;;;;;5110795;28;20077;-70
2022/06/18 05:02:26;;;;;;;6.05;3.58;;;;;;;;;;5111653;27;20397;-70
2022/06/18 05:06:20;;;;;;;6.65;3.75;;;;;;;;;;5111477;27;20384;-70
2022/06/18 05:08:46;;;;;;;7.07;3.67;;;;;;;;;;5111522;28;20020;-70
2022/06/18 05:11:12;;;;;;;4.78;3.13;;;;;;;;;;5111832;28;20396;-70
2022/06/18 05:13:39;;;;;;;6.78;3.38;;;;;;;;;;5110766;28;20099;-70
2022/06/18 05:16:07;;;;;;;7.30;3.55;;;;;;;;;;5111188;28;20032;-70
2022/06/18 05:18:34;;;;;;;8.70;3.13;;;;;;;;;;5111104;28;20077;-70
2022/06/18 05:21:00;;;;;;;7.47;3.80;;;;;;;;;;5110627;28;20031;-70
2022/06/18 05:23:26;;;;;;;6.72;3.03;;;;;;;;;;5111304;28;20425;-70
2022/06/18 05:27:50;;;;;;;7.80;3.80;;;;;;;;;;5111407;27;20422;-71
2022/06/18 05:30:18;;;;;;;6.32;3.05;;;;;;;;;;5111353;28;20076;-70
2022/06/18 05:32:45;;;;;;;6.40;3.25;;;;;;;;;;5111416;28;20024;-70
2022/06/18 05:36:38;;;;;;;6.47;3.25;;;;;;;;;;5111324;27;20422;-70
2022/06/18 05:39:05;;;;;;;6.78;3.63;;;;;;;;;;5111389;28;20023;-70
2022/06/18 05:42:25;;;;;;;5.85;3.47;;;;;;;;;;5111058;27;20414;-71
2022/06/18 05:44:52;;;;;;;3.58;2.47;;;;;;;;;;5111434;28;20016;-70
2022/06/18 05:49:24;;;;;;;3.80;2.60;;;;;;;;;;5111233;27;20839;-70
2022/06/18 05:52:41;;;;;;;5.25;2.78;;;;;;;;;;5111849;27;20392;-70
2022/06/18 05:55:08;;;;;;;5.18;3.42;;;;;;;;;;5110837;28;20020;-70
2022/06/18 05:57:34;;;;;;;7.00;3.65;;;;;;;;;;5111066;28;20045;-70
2022/06/18 06:02:58;;;;;;;4.40;2.72;;;;;;;;;;5111030;27;20458;-70
2022/06/18 06:07:17;;;;;;;6.63;3.40;;;;;;;;;;5112180;27;20405;-71
2022/06/18 06:12:28;;;;;;;5.15;2.85;;;;;;;;;;5111299;28;20199;-70
2022/06/18 06:15:59;;;;;;;6.30;2.80;;;;;;;;;;5071392;28;20387;-70
2022/06/18 06:18:26;;;;;;;5.60;2.67;;;;;;;;;;5070281;28;20481;-70
2022/06/18 06:25:15;;;;;;;16.25;3.22;;;;;;;;;;5110988;27;20392;-71
2022/06/18 06:27:41;;;;;;;9.52;2.95;;;;;;;;;;5111369;28;20024;-71
2022/06/18 06:30:11;;;;;;;4.50;2.65;;;;;;;;;;5111468;28;20387;-71
2022/06/18 06:32:37;;;;;;;5.95;3.10;;;;;;;;;;5111168;28;20023;-70
2022/06/18 06:36:37;;;;;;;4.38;3.00;;;;;;;;;;5111351;27;20413;-70
2022/06/18 06:39:04;;;;;;;5.22;2.67;;;;;;;;;;5110947;28;20020;-70
2022/06/18 06:41:31;;;;;;;4.60;2.97;;;;;;;;;;5111580;28;20137;-70
2022/06/18 06:43:57;;;;;;;5.25;2.78;;;;;;;;;;5111207;28;20032;-71
2022/06/18 06:46:23;;;;;;;8.93;3.30;;;;;;;;;;5110765;28;20020;-71
2022/06/18 06:48:49;;;;;;;6.65;2.90;;;;;;;;;;5109721;28;20099;-71
2022/06/18 06:51:17;;;;;;;7.30;3.35;;;;;;;;;;5110619;28;20024;-71
2022/06/18 06:53:43;;;;;;;6.15;2.80;;;;;;;;;;5110914;28;20094;-71
2022/06/18 06:58:59;;;;;;;6.03;3.40;;;;;;;;;;5110782;28;20511;-71
2022/06/18 07:01:25;;;;;;;4.10;2.70;;;;;;;;;;5111079;28;20023;-71
2022/06/18 07:04:46;;;;;;;5.03;2.78;;;;;;;;;;5111382;27;20565;-70
2022/06/18 07:07:13;;;;;;;4.32;2.75;;;;;;;;;;5111022;28;20023;-71
2022/06/18 07:11:49;;;;;;;3.70;2.38;;;;;;;;;;5111635;27;20389;-71
2022/06/18 07:14:15;;;;;;;5.57;3.10;;;;;;;;;;5110854;28;20026;-71
2022/06/18 07:18:41;;;;;;;5.15;2.67;;;;;;;;;;5111417;27;20388;-70
2022/06/18 07:21:10;;;;;;;4.80;2.83;;;;;;;;;;5110922;28;20023;-71
2022/06/18 07:25:35;;;;;;;6.95;3.13;;;;;;;;;;5111417;27;20473;-71
2022/06/18 07:29:49;;;;;;;9.73;2.88;;;;;;;;;;5111602;27;20994;-71
2022/06/18 07:32:17;;;;;;;5.03;3.60;;;;;;;;;;5111734;28;20023;-71
2022/06/18 07:36:24;;;;;;;5.10;3.15;;;;;;;;;;5070663;28;20117;-70
2022/06/18 07:40:32;;;;;;;5.93;3.17;;;;;;;;;;5110981;27;20397;-71
2022/06/18 07:42:58;;;;;;;3.63;2.70;;;;;;;;;;5109936;28;20516;-71
2022/06/18 07:45:37;;;;;;;8.50;3.03;;;;;;;;;;5111521;27;20381;-71
2022/06/18 07:48:04;;;;;;;6.80;3.20;;;;;;;;;;5110693;28;20035;-71
2022/06/18 07:50:30;;;;;;;8.82;3.25;;;;;;;;;;5111162;28;20536;-71
2022/06/18 07:52:56;;;;;;;7.90;3.97;;;;;;;;;;5111121;28;20023;-71
2022/06/18 07:55:24;;;;;;;5.20;3.08;;;;;;;;;;5110641;28;20070;-71
2022/06/18 07:57:51;;;;;;;4.50;2.58;;;;;;;;;;5111060;28;20472;-71
2022/06/18 08:00:19;;;;;;;8.23;3.67;;;;;;;;;;5110997;28;20051;-71
2022/06/18 08:04:49;;;;;;;5.53;3.03;;;;;;;;;;5111892;27;20392;-70
2022/06/18 08:07:16;;;;;;;5.00;2.78;;;;;;;;;;5111224;28;20028;-71
2022/06/18 08:09:42;;;;;;;6.05;2.97;;;;;;;;;;5110798;28;20417;-72
2022/06/18 08:12:08;;;;;;;3.25;2.50;;;;;;;;;;5111049;28;20396;-72
2022/06/18 08:14:35;;;;;;;5.35;2.63;;;;;;;;;;5111028;28;20028;-72
2022/06/18 08:17:01;;;;;;;4.85;3.03;;;;;;;;;;5110577;28;20468;-72
2022/06/18 08:19:27;;;;;;;5.20;2.55;;;;;;;;;;5111335;28;20044;-72
2022/06/18 08:21:53;;;;;;;9.00;3.25;;;;;;;;;;5110967;28;20016;-73
2022/06/18 08:24:20;;;;;;;8.05;2.78;;;;;;;;;;5109134;28;20403;-72
2022/06/18 08:26:48;;;;;;;4.20;2.60;;;;;;;;;;5110767;28;20031;-72
2022/06/18 08:29:16;;;;;;;5.65;2.78;;;;;;;;;;5110810;28;20109;-72
2022/06/18 08:31:42;;;;;;;6.00;2.70;;;;;;;;;;5109134;28;20023;-72
2022/06/18 08:34:09;;;;;;;5.55;2.85;;;;;;;;;;5110639;28;20019;-72
2022/06/18 08:36:37;;;;;;;7.47;3.13;;;;;;;;;;5110737;28;20026;-72
2022/06/18 08:39:04;;;;;;;7.07;2.50;;;;;;;;;;5110261;28;20035;-72
2022/06/18 08:41:36;;;;;;;4.95;2.85;;;;;;;;;;5110587;28;20046;-72
2022/06/18 08:45:17;;;;;;;4.07;2.53;;;;;;;;;;5111235;27;20393;-71
2022/06/18 08:47:49;;;;;;;5.57;3.35;;;;;;;;;;5111295;28;20487;-72
2022/06/18 08:50:31;;;;;;;4.93;2.45;;;;;;;;;;5111274;28;20020;-72
2022/06/18 08:52:57;;;;;;;6.22;2.53;;;;;;;;;;5110785;28;20024;-72
2022/06/18 08:55:29;;;;;;;5.32;2.35;;;;;;;;;;5111086;28;20023;-72
2022/06/18 08:59:08;;;;;;;5.03;2.70;;;;;;;;;;5111202;27;20389;-71
2022/06/18 09:01:38;;;;;;;7.05;2.70;;;;;;;;;;5111583;28;20020;-71
2022/06/18 09:04:04;;;;;;;5.35;2.47;;;;;;;;;;5111184;28;20051;-72
2022/06/18 09:06:37;;;;;;;4.10;2.03;;;;;;;;;;5110705;28;20024;-73
2022/06/18 09:09:35;;;;;;;4.03;2.22;;;;;;;;;;5111122;28;20030;-72
2022/06/18 09:12:05;;;;;;;6.25;2.40;;;;;;;;;;5098500;28;20039;-72
2022/06/18 09:14:40;;;;;;;4.05;2.25;;;;;;;;;;5110941;28;20024;-71
2022/06/18 09:18:32;;;;;;;3.78;2.10;;;;;;;;;;5111412;27;20568;-71
2022/06/18 09:21:00;;;;;;;3.35;2.08;;;;;;;;;;5110949;28;20024;-71
2022/06/18 09:23:29;;;;;;;6.22;2.40;;;;;;;;;;5111102;28;20050;-71
2022/06/18 09:25:56;;;;;;;3.83;2.40;;;;;;;;;;5111243;28;20107;-72
2022/06/18 09:28:28;;;;;;;4.03;2.60;;;;;;;;;;5111116;28;20020;-72
2022/06/18 09:30:54;;;;;;;4.47;2.13;;;;;;;;;;5111145;28;20460;-72
2022/06/18 09:33:20;;;;;;;6.13;3.63;;;;;;;;;;5110740;28;20446;-72
2022/06/18 09:35:46;;;;;;;4.00;2.50;;;;;;;;;;5109711;28;20115;-72
2022/06/18 09:38:31;;;;;;;5.22;2.33;;;;;;;;;;5111115;28;20032;-72
2022/06/18 09:42:07;;;;;;;9.43;2.65;;;;;;;;;;5111004;27;20384;-71
2022/06/18 09:44:39;;;;;;;3.15;2.20;;;;;;;;;;5111550;28;20028;-71
2022/06/18 09:47:14;;;;;;;4.00;2.20;;;;;;;;;;5110839;28;20016;-71
2022/06/18 09:49:41;;;;;;;4.68;2.10;;;;;;;;;;5111385;28;20103;-72
2022/06/18 09:52:17;;;;;;;4.40;2.10;;;;;;;;;;5111117;28;20020;-71
2022/06/18 09:55:15;;;;;;;5.30;2.30;;;;;;;;;;5111308;27;20609;-72
2022/06/18 09:57:43;;;;;;;3.22;2.00;;;;;;;;;;5111336;28;20111;-71
2022/06/18 10:00:15;;;;;;;4.47;1.85;;;;;;;;;;5111425;28;20480;-71
2022/06/18 10:02:44;;;;;;;2.33;1.70;;;;;;;;;;5110975;28;20502;-71
2022/06/18 10:08:01;;;;;;;3.53;1.85;;;;;;;;;;5111141;28;20537;-72
2022/06/18 10:10:29;;;;;;;3.35;1.95;;;;;;;;;;5110683;28;20507;-71
2022/06/18 10:12:59;;;;;;;3.95;1.92;;;;;;;;;;5110911;28;20023;-71
2022/06/18 10:15:27;;;;;;;2.65;1.85;;;;;;;;;;5110666;28;20028;-71
2022/06/18 10:17:56;;;;;;;3.75;2.10;;;;;;;;;;5110928;28;20460;-71
2022/06/18 10:20:41;;;;;;;2.58;1.70;;;;;;;;;;5111121;28;20031;-71
2022/06/18 10:23:19;;;;;;;3.40;1.75;;;;;;;;;;5110477;28;20030;-71
2022/06/18 10:26:01;;;;;;;3.53;1.80;;;;;;;;;;5109474;28;20023;-71
2022/06/18 10:28:36;;;;;;;5.00;1.88;;;;;;;;;;5110738;28;20172;-72
2022/06/18 10:31:29;;;;;;;6.13;2.08;;;;;;;;;;5110190;28;20092;-72
2022/06/18 10:34:04;;;;;;;5.07;2.05;;;;;;;;;;5086827;28;20567;-72
2022/06/18 10:36:33;;;;;;;3.65;2.03;;;;;;;;;;5110249;28;20040;-71
2022/06/18 10:39:12;;;;;;;5.03;2.00;;;;;;;;;;5109167;28;20059;-72
2022/06/18 10:41:44;;;;;;;3.28;1.70;;;;;;;;;;5110290;28;20026;-72
2022/06/18 10:44:16;;;;;;;3.15;1.80;;;;;;;;;;5108718;28;20051;-72
2022/06/18 10:46:42;;;;;;;3.75;1.85;;;;;;;;;;5110338;28;20031;-72
2022/06/18 10:49:09;;;;;;;3.22;1.90;;;;;;;;;;5108920;28;20122;-72
2022/06/18 10:51:42;;;;;;;4.20;1.80;;;;;;;;;;5110126;28;20028;-72
2022/06/18 10:54:09;;;;;;;5.63;2.17;;;;;;;;;;5110049;28;20495;-72
2022/06/18 10:56:46;;;;;;;2.88;1.67;;;;;;;;;;5110241;28;20027;-72
2022/06/18 10:59:12;;;;;;;5.15;1.80;;;;;;;;;;5109872;28;20069;-72
2022/06/18 11:01:40;;;;;;;4.50;1.75;;;;;;;;;;5110073;28;20028;-72
2022/06/18 11:04:23;;;;;;;4.65;1.98;;;;;;;;;;5110030;28;20506;-72
2022/06/18 11:06:50;;;;;;;5.70;2.45;;;;;;;;;;5095744;28;20369;-72
2022/06/18 11:09:24;;;;;;;4.22;1.85;;;;;;;;;;5096455;28;20099;-72
2022/06/18 11:11:55;;;;;;;2.97;1.70;;;;;;;;;;5095925;28;20540;-72
2022/06/18 11:14:21;;;;;;;2.72;1.70;;;;;;;;;;5094827;28;20078;-72
2022/06/18 11:16:48;;;;;;;3.13;2.13;;;;;;;;;;5096183;28;20500;-73
2022/06/18 11:19:35;;;;;;;6.15;2.50;;;;;;;;;;5095765;28;20058;-72
2022/06/18 11:22:10;;;;;;;4.03;1.88;;;;;;;;;;5096022;28;20480;-72
2022/06/18 11:24:37;;;;;;;4.38;2.42;;;;;;;;;;5095892;28;20070;-72
2022/06/18 11:27:06;;;;;;;4.53;2.10;;;;;;;;;;5095729;28;20426;-73
2022/06/18 11:29:41;;;;;;;4.32;1.80;;;;;;;;;;5096048;28;20020;-72
2022/06/18 11:32:27;;;;;;;3.10;1.90;;;;;;;;;;5095876;28;20365;-72
2022/06/18 11:35:02;;;;;;;3.08;1.80;;;;;;;;;;5095279;28;20396;-73
2022/06/18 11:37:29;;;;;;;3.58;1.90;;;;;;;;;;5095763;28;20035;-72
2022/06/18 11:39:57;;;;;;;3.65;1.88;;;;;;;;;;5095137;28;20032;-72
2022/06/18 11:42:29;;;;;;;3.05;1.65;;;;;;;;;;5095718;28;20024;-72
2022/06/18 11:45:07;;;;;;;2.15;1.88;;;;;;;;;;5095648;28;20054;-72
2022/06/18 11:47:36;;;;;;;2.50;1.70;;;;;;;;;;5095611;28;20102;-72
2022/06/18 11:50:06;;;;;;;3.42;1.83;;;;;;;;;;5095203;28;20580;-72
2022/06/18 11:52:32;;;;;;;4.20;1.63;;;;;;;;;;5095733;28;20078;-72
2022/06/18 11:55:02;;;;;;;2.63;1.58;;;;;;;;;;5094793;28;20134;-72
2022/06/18 11:57:31;;;;;;;5.97;1.90;;;;;;;;;;5095516;28;20060;-72
2022/06/18 12:00:16;;;;;;;6.63;2.28;;;;;;;;;;5096466;28;20020;-72
2022/06/18 12:02:46;;;;;;;4.32;1.65;;;;;;;;;;5094843;28;20495;-72
2022/06/18 12:05:15;;;;;;;2.92;1.85;;;;;;;;;;5095621;28;20542;-72
2022/06/18 12:07:53;;;;;;;2.28;1.55;;;;;;;;;;5095200;28;20081;-72
2022/06/18 12:10:23;;;;;;;3.10;1.40;;;;;;;;;;5094777;28;20016;-72
2022/06/18 12:12:58;;;;;;;2.17;1.70;;;;;;;;;;5095079;28;20027;-72
2022/06/18 12:15:50;;;;;;;3.28;1.88;;;;;;;;;;5094903;28;20028;-71
2022/06/18 12:18:42;;;;;;;3.58;1.60;;;;;;;;;;5091368;28;20507;-72
2022/06/18 12:21:08;;;;;;;;;;;;;;;;;;5071955;28;20059;-72
2022/06/18 12:23:55;;;;;;;3.95;1.80;;;;;;;;;;5094748;28;20299;-72
2022/06/18 12:26:41;;;;;;;4.30;1.52;;;;;;;;;;5095006;28;20035;-72
2022/06/18 12:29:20;;;;;;;3.17;1.73;;;;;;;;;;5094427;28;20028;-73
2022/06/18 12:32:07;;;;;;;3.00;1.73;;;;;;;;;;5094816;28;20016;-72
2022/06/18 12:34:47;;;;;;;3.65;2.00;;;;;;;;;;5084049;28;20075;-72
2022/06/18 12:37:13;;;;;;;1.92;1.58;;;;;;;;;;5094337;28;20095;-72
2022/06/18 12:39:45;;;;;;;5.75;2.00;;;;;;;;;;5094555;28;20068;-73
2022/06/18 12:42:13;;;;;;;;;;;;;;;;;;5094816;28;20058;-72
2022/06/18 12:44:39;;;;;;;3.95;1.90;;;;;;;;;;5093993;28;19904;-72
2022/06/18 12:47:07;;;;;;;3.05;1.98;;;;;;;;;;5094610;28;20058;-72
2022/06/18 12:49:37;;;;;;;3.08;2.00;;;;;;;;;;5094388;28;20019;-73
2022/06/18 12:52:03;;;;;;;3.08;1.77;;;;;;;;;;5093897;28;20020;-72
2022/06/18 12:54:35;;;;;;;2.20;1.42;;;;;;;;;;5093950;28;20090;-72
2022/06/18 12:57:16;;;;;;;2.97;1.80;;;;;;;;;;5094558;28;20024;-72
2022/06/18 13:00:00;;;;;;;3.33;1.83;;;;;;;;;;5094579;28;20016;-72
2022/06/18 13:02:45;;;;;;;3.10;1.90;;;;;;;;;;5094188;28;20031;-72
2022/06/18 13:05:28;;;;;;;3.53;1.92;;;;;;;;;;5092389;28;20468;-72
2022/06/18 13:08:13;;;;;;;2.88;1.85;;;;;;;;;;5093865;28;20027;-72
2022/06/18 13:10:57;;;;;;;4.32;2.53;;;;;;;;;;5093886;28;20020;-72
2022/06/18 13:13:42;;;;;;;3.65;2.03;;;;;;;;;;5093459;28;20028;-72
2022/06/18 13:16:08;;;;;;;3.03;1.83;;;;;;;;;;5094012;28;20028;-72
2022/06/18 13:18:44;;;;;;;5.28;2.10;;;;;;;;;;5093411;28;20031;-72
2022/06/18 13:21:11;;;;;;;3.15;1.80;;;;;;;;;;5093995;28;20028;-72
2022/06/18 13:29:49;;;;;;;3.17;1.67;;;;;;;;;;5093446;28;20444;-73
2022/06/18 13:32:15;;;;;;;3.75;2.10;;;;;;;;;;5093674;28;20020;-73
2022/06/18 13:34:46;;;;;;;4.45;2.55;;;;;;;;;;5093073;28;20040;-72
2022/06/18 13:37:31;;;;;;;2.15;1.60;;;;;;;;;;5093678;28;20099;-72
2022/06/18 13:39:57;;;;;;;2.88;1.88;;;;;;;;;;5093085;28;20150;-73
2022/06/18 13:42:30;;;;;;;3.85;1.80;;;;;;;;;;5093431;28;20051;-70
2022/06/18 13:45:02;;;;;;;4.78;1.80;;;;;;;;;;5093587;28;20024;-71
2022/06/18 13:47:28;;;;;;;2.63;1.77;;;;;;;;;;5093056;28;20020;-70
2022/06/18 13:50:27;;;;;;;2.03;1.50;;;;;;;;;;5093256;28;20500;-72
2022/06/18 13:52:53;;;;;;;4.43;2.00;;;;;;;;;;5059451;28;20034;-71
2022/06/18 13:55:31;;;;;;;2.90;1.73;;;;;;;;;;5092887;28;20488;-71
2022/06/18 13:57:58;;;;;;;5.70;1.80;;;;;;;;;;5092269;28;20413;-71
2022/06/18 14:00:25;;;;;;;4.90;1.98;;;;;;;;;;5093296;28;20024;-71
2022/06/18 14:02:57;;;;;;;2.05;1.70;;;;;;;;;;5092872;28;20063;-72
2022/06/18 14:05:34;;;;;;;3.53;1.75;;;;;;;;;;5093227;28;20029;-72
2022/06/18 14:08:00;;;;;;;4.03;1.80;;;;;;;;;;5092867;28;20498;-71
2022/06/18 14:10:27;;;;;;;3.70;1.75;;;;;;;;;;5092715;28;20038;-72
2022/06/18 14:13:10;;;;;;;3.00;1.60;;;;;;;;;;5093178;28;20031;-72
2022/06/18 14:15:36;;;;;;;4.57;1.70;;;;;;;;;;5091554;28;20032;-72
2022/06/18 14:18:04;;;;;;;1.67;1.20;;;;;;;;;;5093116;28;20031;-72
2022/06/18 14:20:35;;;;;;;2.28;1.33;;;;;;;;;;5093195;28;20082;-72
2022/06/18 14:23:11;;;;;;;1.23;1.05;;;;;;;;;;5092803;28;20024;-72
2022/06/18 14:25:42;;;;;;;5.18;1.65;;;;;;;;;;5093172;28;20471;-72
2022/06/18 14:28:18;;;;;;;2.88;1.60;;;;;;;;;;5093029;28;20365;-72
2022/06/18 14:30:46;;;;;;;1.50;1.20;;;;;;;;;;5092730;28;20484;-72
2022/06/18 14:33:19;;;;;;;4.70;1.60;;;;;;;;;;5092932;28;20024;-72
2022/06/18 14:36:03;;;;;;;3.05;1.20;;;;;;;;;;5092938;28;20088;-72
2022/06/18 14:38:33;;;;;;;1.50;1.15;;;;;;;;;;5093298;28;20078;-72
2022/06/18 14:43:53;;;;;;;1.70;1.15;;;;;;;;;;5096382;28;20499;-72
2022/06/18 14:46:29;;;;;;;3.55;1.35;;;;;;;;;;5096689;28;20060;-72
2022/06/18 14:48:55;;;;;;;3.22;1.55;;;;;;;;;;5095399;28;20388;-72
2022/06/18 14:51:25;;;;;;;1.73;1.30;;;;;;;;;;5096193;28;20047;-72
2022/06/18 14:53:54;;;;;;;4.45;3.60;;;;;;;;;;5096332;28;20040;-72
2022/06/18 14:56:45;;;;;;;1.85;1.30;;;;;;;;;;5096416;28;20076;-71
2022/06/18 14:59:20;;;;;;;2.40;1.20;;;;;;;;;;5096535;28;20052;-72
2022/06/18 15:01:59;;;;;;;1.38;1.13;;;;;;;;;;5096467;28;20024;-71
2022/06/18 15:04:30;;;;;;;1.90;1.23;;;;;;;;;;5096162;28;20021;-72
2022/06/18 15:07:03;;;;;;;2.55;1.70;;;;;;;;;;5096354;28;20388;-71
2022/06/18 15:09:30;;;;;;;2.58;1.42;;;;;;;;;;5096676;28;20028;-71
2022/06/18 15:12:00;;;;;;;1.95;1.30;;;;;;;;;;5095917;28;20020;-71
2022/06/18 15:14:29;;;;;;;1.98;1.60;;;;;;;;;;5096232;28;20590;-71
2022/06/18 15:17:28;;;;;;;2.03;1.38;;;;;;;;;;5096168;28;20049;-71
2022/06/18 15:25:25;;;;;;;4.00;1.65;;;;;;;;;;5096226;28;20115;-71
2022/06/18 15:27:55;;;;;;;4.10;1.98;;;;;;;;;;5096247;28;20441;-72
2022/06/18 15:30:33;;;;;;;3.15;2.10;;;;;;;;;;5096015;28;20023;-71
2022/06/18 15:33:16;;;;;;;3.72;1.95;;;;;;;;;;5094118;28;20097;-71
2022/06/18 15:35:47;;;;;;;4.28;1.70;;;;;;;;;;5096104;28;20024;-71
2022/06/18 15:38:22;;;;;;;2.35;1.48;;;;;;;;;;5095707;28;20024;-71
2022/06/18 15:40:54;;;;;;;3.15;1.65;;;;;;;;;;5095365;28;20496;-71
2022/06/18 15:43:25;;;;;;;3.53;1.65;;;;;;;;;;5095952;28;20123;-72
2022/06/18 15:45:54;;;;;;;4.32;1.40;;;;;;;;;;5095653;28;20081;-72
2022/06/18 15:48:25;;;;;;;3.05;1.63;;;;;;;;;;5095981;28;20028;-72
2022/06/18 15:50:54;;;;;;;5.07;1.77;;;;;;;;;;5095755;28;20021;-72
2022/06/18 15:53:28;;;;;;;3.15;1.80;;;;;;;;;;5094819;28;20083;-72
2022/06/18 15:55:56;;;;;;;4.18;1.60;;;;;;;;;;5095458;28;20023;-71
2022/06/18 15:58:23;;;;;;;3.33;1.40;;;;;;;;;;5094203;28;20032;-71
2022/06/18 16:00:49;;;;;;;2.33;1.33;;;;;;;;;;5095025;28;20035;-72
2022/06/18 16:03:17;;;;;;;2.22;1.10;;;;;;;;;;5095191;28;20066;-72
2022/06/18 16:05:44;;;;;;;3.53;1.38;;;;;;;;;;5095590;28;20016;-72
2022/06/18 16:08:34;;;;;;;3.05;1.48;;;;;;;;;;5110995;27;20415;-72
2022/06/18 16:11:20;;;;;;;2.47;1.30;;;;;;;;;;5111256;28;20020;-72
2022/06/18 16:13:47;;;;;;;3.00;1.00;;;;;;;;;;5111396;28;20494;-72
2022/06/18 16:16:21;;;;;;;3.00;1.38;;;;;;;;;;5111016;28;20426;-72
2022/06/18 16:18:48;;;;;;;2.25;1.27;;;;;;;;;;5111050;28;20028;-71
2022/06/18 16:23:34;;;;;;;4.03;1.88;;;;;;;;;;5111441;27;20466;-71
2022/06/18 16:27:28;;;;;;;1.55;1.38;;;;;;;;;;5112005;27;20385;-72
2022/06/18 16:30:05;;;;;;;4.05;1.50;;;;;;;;;;5110890;28;20480;-72
2022/06/18 16:33:41;;;;;;;4.15;1.90;;;;;;;;;;5111869;27;20392;-72
2022/06/18 16:36:08;;;;;;;2.65;1.60;;;;;;;;;;5111172;28;20055;-71
2022/06/18 16:39:41;;;;;;;3.03;1.80;;;;;;;;;;5101243;27;1547617;-71
2022/06/18 16:42:43;;;;;;;3.15;1.88;;;;;;;;;;5132058;28;20031;-71
2022/06/18 16:45:18;;;;;;;2.88;1.77;;;;;;;;;;5048855;28;20029;-71
2022/06/18 16:47:45;;;;;;;4.05;2.03;;;;;;;;;;5133265;27;20035;-71
2022/06/18 16:52:17;;;;;;;4.10;1.75;;;;;;;;;;5111381;27;20392;-71
2022/06/18 16:56:35;;;;;;;4.07;1.80;;;;;;;;;;5110965;27;20389;-71
2022/06/18 16:59:53;;;;;;;3.50;2.00;;;;;;;;;;5112017;27;20993;-71
2022/06/18 17:02:19;;;;;;;5.60;2.40;;;;;;;;;;5111295;28;20051;-71
2022/06/18 17:04:45;;;;;;;4.80;2.67;;;;;;;;;;5110916;28;20035;-72
2022/06/18 17:07:11;;;;;;;5.28;2.13;;;;;;;;;;5111163;28;20022;-72
2022/06/18 17:09:39;;;;;;;7.53;2.63;;;;;;;;;;5109846;28;20024;-71
2022/06/18 17:12:06;;;;;;;5.22;2.33;;;;;;;;;;5110771;28;20479;-71
2022/06/18 17:14:32;;;;;;;2.15;1.42;;;;;;;;;;5111013;28;20024;-71
2022/06/18 17:18:36;;;;;;;5.30;1.85;;;;;;;;;;5111188;27;20397;-71
2022/06/18 17:21:02;;;;;;;2.83;1.70;;;;;;;;;;5111282;28;20030;-71
2022/06/18 17:23:31;;;;;;;3.67;1.80;;;;;;;;;;5111043;28;20077;-71
2022/06/18 17:31:54;;;;;;;3.97;2.20;;;;;;;;;;5111133;27;20380;-72
2022/06/18 17:36:27;;;;;;;3.05;1.90;;;;;;;;;;5112039;27;20860;-71
2022/06/18 17:38:55;;;;;;;4.10;2.10;;;;;;;;;;5110990;28;20028;-70
2022/06/18 17:41:21;;;;;;;3.80;2.30;;;;;;;;;;5111121;28;20023;-71